sensor_id;sensor_type;location;lat;lon;timestamp;P1;durP1;ratioP1;P2;durP2;ratioP2
37609;SDS011;23457;51.966;8.230;2023-02-18T00:01:26;40.35;;;22.80;;
37609;SDS011;23457;51.966;8.230;2023-02-18T00:03:56;45.33;;;22.35;;
37609;SDS011;23457;51.966;8.230;2023-02-18T00:06:28;45.55;;;22.88;;
37609;SDS011;23457;51.966;8.230;2023-02-18T00:08:58;38.65;;;22.63;;
37609;SDS011;23457;51.966;8.230;2023-02-18T00:11:28;46.17;;;23.90;;
37609;SDS011;23457;51.966;8.230;2023-02-18T00:13:57;47.13;;;24.83;;
37609;SDS011;23457;51.966;8.230;2023-02-18T00:16:26;40.92;;;23.40;;
37609;SDS011;23457;51.966;8.230;2023-02-18T00:18:54;46.38;;;23.42;;
37609;SDS011;23457;51.966;8.230;2023-02-18T00:21:22;49.43;;;23.30;;
37609;SDS011;23457;51.966;8.230;2023-02-18T00:23:49;49.22;;;24.25;;
37609;SDS011;23457;51.966;8.230;2023-02-18T00:26:16;47.25;;;24.50;;
37609;SDS011;23457;51.966;8.230;2023-02-18T00:28:45;45.63;;;23.98;;
37609;SDS011;23457;51.966;8.230;2023-02-18T00:31:20;44.83;;;24.13;;
37609;SDS011;23457;51.966;8.230;2023-02-18T00:33:47;48.42;;;24.10;;
37609;SDS011;23457;51.966;8.230;2023-02-18T00:36:15;43.20;;;23.23;;
37609;SDS011;23457;51.966;8.230;2023-02-18T00:38:43;42.20;;;23.33;;
37609;SDS011;23457;51.966;8.230;2023-02-18T00:41:11;48.47;;;23.30;;
37609;SDS011;23457;51.966;8.230;2023-02-18T00:43:38;53.38;;;25.60;;
37609;SDS011;23457;51.966;8.230;2023-02-18T00:46:05;42.42;;;24.58;;
37609;SDS011;23457;51.966;8.230;2023-02-18T00:48:33;49.90;;;25.55;;
37609;SDS011;23457;51.966;8.230;2023-02-18T00:51:01;47.33;;;24.42;;
37609;SDS011;23457;51.966;8.230;2023-02-18T00:53:29;44.47;;;24.17;;
37609;SDS011;23457;51.966;8.230;2023-02-18T00:55:56;50.13;;;25.63;;
37609;SDS011;23457;51.966;8.230;2023-02-18T00:58:23;50.45;;;26.05;;
37609;SDS011;23457;51.966;8.230;2023-02-18T01:00:50;54.17;;;26.77;;
37609;SDS011;23457;51.966;8.230;2023-02-18T01:03:17;52.40;;;27.25;;
37609;SDS011;23457;51.966;8.230;2023-02-18T01:05:44;52.85;;;28.42;;
37609;SDS011;23457;51.966;8.230;2023-02-18T01:08:11;48.00;;;27.48;;
37609;SDS011;23457;51.966;8.230;2023-02-18T01:10:41;53.75;;;27.20;;
37609;SDS011;23457;51.966;8.230;2023-02-18T01:13:10;45.47;;;27.70;;
37609;SDS011;23457;51.966;8.230;2023-02-18T01:15:38;54.80;;;28.90;;
37609;SDS011;23457;51.966;8.230;2023-02-18T01:18:06;56.28;;;29.48;;
37609;SDS011;23457;51.966;8.230;2023-02-18T01:20:34;55.75;;;29.60;;
37609;SDS011;23457;51.966;8.230;2023-02-18T01:23:02;48.13;;;29.90;;
37609;SDS011;23457;51.966;8.230;2023-02-18T01:25:30;54.05;;;29.17;;
37609;SDS011;23457;51.966;8.230;2023-02-18T01:27:59;54.80;;;30.48;;
37609;SDS011;23457;51.966;8.230;2023-02-18T01:30:26;68.70;;;31.05;;
37609;SDS011;23457;51.966;8.230;2023-02-18T01:32:54;50.85;;;29.67;;
37609;SDS011;23457;51.966;8.230;2023-02-18T01:35:21;59.88;;;30.83;;
37609;SDS011;23457;51.966;8.230;2023-02-18T01:37:49;53.53;;;30.48;;
37609;SDS011;23457;51.966;8.230;2023-02-18T01:40:20;54.22;;;29.90;;
37609;SDS011;23457;51.966;8.230;2023-02-18T01:42:51;55.97;;;31.65;;
37609;SDS011;23457;51.966;8.230;2023-02-18T01:48:01;58.90;;;31.85;;
37609;SDS011;23457;51.966;8.230;2023-02-18T01:50:43;60.95;;;31.80;;
37609;SDS011;23457;51.966;8.230;2023-02-18T01:53:16;55.83;;;30.75;;
37609;SDS011;23457;51.966;8.230;2023-02-18T01:55:47;60.53;;;32.00;;
37609;SDS011;23457;51.966;8.230;2023-02-18T01:58:14;58.80;;;32.55;;
37609;SDS011;23457;51.966;8.230;2023-02-18T02:00:44;53.72;;;32.92;;
37609;SDS011;23457;51.966;8.230;2023-02-18T02:03:13;55.88;;;32.38;;
37609;SDS011;23457;51.966;8.230;2023-02-18T02:05:42;55.17;;;31.67;;
37609;SDS011;23457;51.966;8.230;2023-02-18T02:08:12;54.05;;;32.22;;
37609;SDS011;23457;51.966;8.230;2023-02-18T02:13:40;64.32;;;34.20;;
37609;SDS011;23457;51.966;8.230;2023-02-18T02:18:58;61.67;;;34.25;;
37609;SDS011;23457;51.966;8.230;2023-02-18T02:21:47;62.35;;;33.33;;
37609;SDS011;23457;51.966;8.230;2023-02-18T02:24:51;60.72;;;34.97;;
37609;SDS011;23457;51.966;8.230;2023-02-18T02:36:24;70.13;;;35.15;;
37609;SDS011;23457;51.966;8.230;2023-02-18T02:39:15;64.00;;;35.50;;
37609;SDS011;23457;51.966;8.230;2023-02-18T02:47:39;72.10;;;36.72;;
37609;SDS011;23457;51.966;8.230;2023-02-18T02:50:23;70.20;;;36.25;;
37609;SDS011;23457;51.966;8.230;2023-02-18T02:52:57;65.82;;;36.63;;
37609;SDS011;23457;51.966;8.230;2023-02-18T02:55:27;67.78;;;34.83;;
37609;SDS011;23457;51.966;8.230;2023-02-18T02:57:55;68.25;;;35.70;;
37609;SDS011;23457;51.966;8.230;2023-02-18T03:00:36;66.38;;;36.88;;
37609;SDS011;23457;51.966;8.230;2023-02-18T03:11:47;62.30;;;31.60;;
37609;SDS011;23457;51.966;8.230;2023-02-18T03:14:48;58.72;;;31.60;;
37609;SDS011;23457;51.966;8.230;2023-02-18T03:17:22;61.53;;;33.20;;
37609;SDS011;23457;51.966;8.230;2023-02-18T03:20:05;60.05;;;32.15;;
37609;SDS011;23457;51.966;8.230;2023-02-18T03:22:40;60.67;;;31.17;;
37609;SDS011;23457;51.966;8.230;2023-02-18T03:25:12;63.17;;;31.80;;
37609;SDS011;23457;51.966;8.230;2023-02-18T03:27:42;60.63;;;31.33;;
37609;SDS011;23457;51.966;8.230;2023-02-18T03:30:24;56.67;;;30.13;;
37609;SDS011;23457;51.966;8.230;2023-02-18T03:33:09;58.03;;;31.13;;
37609;SDS011;23457;51.966;8.230;2023-02-18T03:35:39;58.92;;;31.80;;
37609;SDS011;23457;51.966;8.230;2023-02-18T03:38:19;58.03;;;29.63;;
37609;SDS011;23457;51.966;8.230;2023-02-18T03:40:50;50.63;;;29.70;;
37609;SDS011;23457;51.966;8.230;2023-02-18T03:43:17;62.08;;;32.47;;
37609;SDS011;23457;51.966;8.230;2023-02-18T03:45:44;56.58;;;30.55;;
37609;SDS011;23457;51.966;8.230;2023-02-18T03:48:11;59.30;;;31.67;;
37609;SDS011;23457;51.966;8.230;2023-02-18T03:50:37;56.30;;;29.65;;
37609;SDS011;23457;51.966;8.230;2023-02-18T03:53:04;56.17;;;29.65;;
37609;SDS011;23457;51.966;8.230;2023-02-18T03:55:31;56.85;;;29.10;;
37609;SDS011;23457;51.966;8.230;2023-02-18T03:57:57;59.03;;;30.33;;
37609;SDS011;23457;51.966;8.230;2023-02-18T04:00:24;54.90;;;29.38;;
37609;SDS011;23457;51.966;8.230;2023-02-18T04:02:50;54.72;;;29.48;;
37609;SDS011;23457;51.966;8.230;2023-02-18T04:05:17;56.47;;;29.38;;
37609;SDS011;23457;51.966;8.230;2023-02-18T04:07:44;54.03;;;28.92;;
37609;SDS011;23457;51.966;8.230;2023-02-18T04:10:10;55.72;;;29.40;;
37609;SDS011;23457;51.966;8.230;2023-02-18T04:12:37;56.05;;;29.38;;
37609;SDS011;23457;51.966;8.230;2023-02-18T04:15:04;57.85;;;30.50;;
37609;SDS011;23457;51.966;8.230;2023-02-18T04:17:32;65.22;;;32.08;;
37609;SDS011;23457;51.966;8.230;2023-02-18T04:19:59;59.08;;;31.52;;
37609;SDS011;23457;51.966;8.230;2023-02-18T04:22:26;61.38;;;31.52;;
37609;SDS011;23457;51.966;8.230;2023-02-18T04:24:52;63.33;;;33.30;;
37609;SDS011;23457;51.966;8.230;2023-02-18T04:27:19;70.55;;;35.83;;
37609;SDS011;23457;51.966;8.230;2023-02-18T04:29:46;74.03;;;35.97;;
37609;SDS011;23457;51.966;8.230;2023-02-18T04:32:13;72.35;;;36.08;;
37609;SDS011;23457;51.966;8.230;2023-02-18T04:34:39;69.55;;;36.15;;
37609;SDS011;23457;51.966;8.230;2023-02-18T04:37:06;73.65;;;38.13;;
37609;SDS011;23457;51.966;8.230;2023-02-18T04:39:32;82.78;;;39.17;;
37609;SDS011;23457;51.966;8.230;2023-02-18T04:41:59;79.35;;;39.42;;
37609;SDS011;23457;51.966;8.230;2023-02-18T04:44:26;79.85;;;38.85;;
37609;SDS011;23457;51.966;8.230;2023-02-18T04:46:53;82.43;;;39.65;;
37609;SDS011;23457;51.966;8.230;2023-02-18T04:49:19;83.90;;;39.78;;
37609;SDS011;23457;51.966;8.230;2023-02-18T04:51:46;79.53;;;37.45;;
37609;SDS011;23457;51.966;8.230;2023-02-18T04:54:12;76.50;;;37.83;;
37609;SDS011;23457;51.966;8.230;2023-02-18T04:56:39;73.35;;;37.08;;
37609;SDS011;23457;51.966;8.230;2023-02-18T04:59:06;77.75;;;37.83;;
37609;SDS011;23457;51.966;8.230;2023-02-18T05:01:32;76.90;;;38.13;;
37609;SDS011;23457;51.966;8.230;2023-02-18T05:03:59;75.07;;;37.40;;
37609;SDS011;23457;51.966;8.230;2023-02-18T05:06:26;80.03;;;38.45;;
37609;SDS011;23457;51.966;8.230;2023-02-18T05:08:52;79.20;;;41.20;;
37609;SDS011;23457;51.966;8.230;2023-02-18T05:11:19;83.13;;;39.35;;
37609;SDS011;23457;51.966;8.230;2023-02-18T05:13:46;74.55;;;39.38;;
37609;SDS011;23457;51.966;8.230;2023-02-18T05:16:12;75.68;;;38.58;;
37609;SDS011;23457;51.966;8.230;2023-02-18T05:18:39;74.68;;;38.65;;
37609;SDS011;23457;51.966;8.230;2023-02-18T05:21:06;71.40;;;35.22;;
37609;SDS011;23457;51.966;8.230;2023-02-18T05:23:33;67.70;;;35.83;;
37609;SDS011;23457;51.966;8.230;2023-02-18T05:26:00;66.93;;;34.33;;
37609;SDS011;23457;51.966;8.230;2023-02-18T05:28:26;68.53;;;34.13;;
37609;SDS011;23457;51.966;8.230;2023-02-18T05:30:53;67.63;;;35.33;;
37609;SDS011;23457;51.966;8.230;2023-02-18T05:33:20;68.93;;;33.95;;
37609;SDS011;23457;51.966;8.230;2023-02-18T05:35:47;60.53;;;31.98;;
37609;SDS011;23457;51.966;8.230;2023-02-18T05:38:14;60.10;;;31.75;;
37609;SDS011;23457;51.966;8.230;2023-02-18T05:40:41;61.78;;;32.38;;
37609;SDS011;23457;51.966;8.230;2023-02-18T05:43:07;58.35;;;30.52;;
37609;SDS011;23457;51.966;8.230;2023-02-18T05:45:34;58.15;;;31.08;;
37609;SDS011;23457;51.966;8.230;2023-02-18T05:48:01;60.70;;;30.98;;
37609;SDS011;23457;51.966;8.230;2023-02-18T05:50:28;58.70;;;31.55;;
37609;SDS011;23457;51.966;8.230;2023-02-18T05:52:55;60.80;;;31.15;;
37609;SDS011;23457;51.966;8.230;2023-02-18T05:55:21;58.65;;;30.60;;
37609;SDS011;23457;51.966;8.230;2023-02-18T05:57:49;54.35;;;29.95;;
37609;SDS011;23457;51.966;8.230;2023-02-18T06:00:16;58.05;;;30.42;;
37609;SDS011;23457;51.966;8.230;2023-02-18T06:02:43;52.97;;;29.13;;
37609;SDS011;23457;51.966;8.230;2023-02-18T06:05:13;53.80;;;28.88;;
37609;SDS011;23457;51.966;8.230;2023-02-18T06:07:39;51.13;;;28.45;;
37609;SDS011;23457;51.966;8.230;2023-02-18T06:10:06;53.70;;;27.60;;
37609;SDS011;23457;51.966;8.230;2023-02-18T06:12:33;50.63;;;27.85;;
37609;SDS011;23457;51.966;8.230;2023-02-18T06:15:00;50.95;;;25.92;;
37609;SDS011;23457;51.966;8.230;2023-02-18T06:17:26;47.60;;;24.25;;
37609;SDS011;23457;51.966;8.230;2023-02-18T06:19:53;52.15;;;25.08;;
37609;SDS011;23457;51.966;8.230;2023-02-18T06:22:19;45.55;;;22.90;;
37609;SDS011;23457;51.966;8.230;2023-02-18T06:24:47;38.97;;;19.88;;
37609;SDS011;23457;51.966;8.230;2023-02-18T06:27:14;33.97;;;17.55;;
37609;SDS011;23457;51.966;8.230;2023-02-18T06:29:40;37.17;;;17.13;;
37609;SDS011;23457;51.966;8.230;2023-02-18T06:32:07;37.08;;;17.52;;
37609;SDS011;23457;51.966;8.230;2023-02-18T06:34:34;37.42;;;16.25;;
37609;SDS011;23457;51.966;8.230;2023-02-18T06:37:00;31.88;;;16.17;;
37609;SDS011;23457;51.966;8.230;2023-02-18T06:39:27;30.85;;;15.60;;
37609;SDS011;23457;51.966;8.230;2023-02-18T06:41:54;30.58;;;14.50;;
37609;SDS011;23457;51.966;8.230;2023-02-18T06:44:20;29.20;;;14.35;;
37609;SDS011;23457;51.966;8.230;2023-02-18T06:46:47;27.13;;;14.45;;
37609;SDS011;23457;51.966;8.230;2023-02-18T06:49:14;26.80;;;13.45;;
37609;SDS011;23457;51.966;8.230;2023-02-18T06:51:40;24.02;;;13.05;;
37609;SDS011;23457;51.966;8.230;2023-02-18T06:54:07;25.65;;;13.88;;
37609;SDS011;23457;51.966;8.230;2023-02-18T06:56:34;21.27;;;13.30;;
37609;SDS011;23457;51.966;8.230;2023-02-18T06:59:00;22.08;;;13.20;;
37609;SDS011;23457;51.966;8.230;2023-02-18T07:01:27;22.10;;;13.30;;
37609;SDS011;23457;51.966;8.230;2023-02-18T07:03:54;22.17;;;13.43;;
37609;SDS011;23457;51.966;8.230;2023-02-18T07:06:21;18.63;;;12.32;;
37609;SDS011;23457;51.966;8.230;2023-02-18T07:08:47;18.67;;;12.85;;
37609;SDS011;23457;51.966;8.230;2023-02-18T07:11:14;17.67;;;12.35;;
37609;SDS011;23457;51.966;8.230;2023-02-18T07:13:41;19.85;;;13.43;;
37609;SDS011;23457;51.966;8.230;2023-02-18T07:16:07;19.23;;;13.18;;
37609;SDS011;23457;51.966;8.230;2023-02-18T07:18:35;19.42;;;13.50;;
37609;SDS011;23457;51.966;8.230;2023-02-18T07:21:01;18.15;;;13.55;;
37609;SDS011;23457;51.966;8.230;2023-02-18T07:23:28;16.35;;;12.38;;
37609;SDS011;23457;51.966;8.230;2023-02-18T07:26:01;14.43;;;12.07;;
37609;SDS011;23457;51.966;8.230;2023-02-18T07:28:29;15.18;;;12.20;;
37609;SDS011;23457;51.966;8.230;2023-02-18T07:30:56;13.45;;;11.60;;
37609;SDS011;23457;51.966;8.230;2023-02-18T07:33:23;14.27;;;11.40;;
37609;SDS011;23457;51.966;8.230;2023-02-18T07:35:53;13.75;;;11.90;;
37609;SDS011;23457;51.966;8.230;2023-02-18T07:38:22;13.50;;;11.43;;
37609;SDS011;23457;51.966;8.230;2023-02-18T07:40:50;13.75;;;11.60;;
37609;SDS011;23457;51.966;8.230;2023-02-18T07:43:17;14.20;;;11.80;;
37609;SDS011;23457;51.966;8.230;2023-02-18T07:45:44;12.18;;;10.60;;
37609;SDS011;23457;51.966;8.230;2023-02-18T07:48:11;12.65;;;10.85;;
37609;SDS011;23457;51.966;8.230;2023-02-18T07:50:39;19.33;;;11.98;;
37609;SDS011;23457;51.966;8.230;2023-02-18T07:53:07;15.95;;;12.07;;
37609;SDS011;23457;51.966;8.230;2023-02-18T07:55:34;14.43;;;11.48;;
37609;SDS011;23457;51.966;8.230;2023-02-18T07:58:17;15.00;;;12.13;;
37609;SDS011;23457;51.966;8.230;2023-02-18T08:00:44;14.23;;;11.68;;
37609;SDS011;23457;51.966;8.230;2023-02-18T08:03:13;14.82;;;11.65;;
37609;SDS011;23457;51.966;8.230;2023-02-18T08:05:41;16.33;;;12.32;;
37609;SDS011;23457;51.966;8.230;2023-02-18T08:08:11;17.75;;;13.32;;
37609;SDS011;23457;51.966;8.230;2023-02-18T08:10:39;16.73;;;13.18;;
37609;SDS011;23457;51.966;8.230;2023-02-18T08:13:05;16.38;;;12.05;;
37609;SDS011;23457;51.966;8.230;2023-02-18T08:15:32;15.85;;;11.63;;
37609;SDS011;23457;51.966;8.230;2023-02-18T08:17:59;14.70;;;11.50;;
37609;SDS011;23457;51.966;8.230;2023-02-18T08:20:26;14.30;;;10.98;;
37609;SDS011;23457;51.966;8.230;2023-02-18T08:22:56;13.43;;;10.52;;
37609;SDS011;23457;51.966;8.230;2023-02-18T08:25:22;13.02;;;10.57;;
37609;SDS011;23457;51.966;8.230;2023-02-18T08:27:55;10.38;;;9.07;;
37609;SDS011;23457;51.966;8.230;2023-02-18T08:30:22;12.23;;;9.73;;
37609;SDS011;23457;51.966;8.230;2023-02-18T08:32:48;10.18;;;8.35;;
37609;SDS011;23457;51.966;8.230;2023-02-18T08:35:15;9.43;;;7.63;;
37609;SDS011;23457;51.966;8.230;2023-02-18T08:37:42;9.00;;;7.70;;
37609;SDS011;23457;51.966;8.230;2023-02-18T08:40:19;8.00;;;7.10;;
37609;SDS011;23457;51.966;8.230;2023-02-18T08:42:46;11.05;;;7.30;;
37609;SDS011;23457;51.966;8.230;2023-02-18T08:45:15;8.57;;;7.20;;
37609;SDS011;23457;51.966;8.230;2023-02-18T08:47:42;8.13;;;6.85;;
37609;SDS011;23457;51.966;8.230;2023-02-18T08:50:29;7.32;;;6.50;;
37609;SDS011;23457;51.966;8.230;2023-02-18T08:52:55;7.28;;;6.50;;
37609;SDS011;23457;51.966;8.230;2023-02-18T08:55:23;9.23;;;6.63;;
37609;SDS011;23457;51.966;8.230;2023-02-18T08:57:50;8.23;;;6.95;;
37609;SDS011;23457;51.966;8.230;2023-02-18T09:00:17;10.77;;;6.90;;
37609;SDS011;23457;51.966;8.230;2023-02-18T09:02:44;7.70;;;6.38;;
37609;SDS011;23457;51.966;8.230;2023-02-18T09:05:12;8.43;;;6.55;;
37609;SDS011;23457;51.966;8.230;2023-02-18T09:07:39;9.15;;;7.22;;
37609;SDS011;23457;51.966;8.230;2023-02-18T09:10:06;8.70;;;6.28;;
37609;SDS011;23457;51.966;8.230;2023-02-18T09:12:38;11.82;;;7.93;;
37609;SDS011;23457;51.966;8.230;2023-02-18T09:15:04;9.52;;;7.60;;
37609;SDS011;23457;51.966;8.230;2023-02-18T09:17:31;8.00;;;6.80;;
37609;SDS011;23457;51.966;8.230;2023-02-18T09:19:59;10.90;;;7.55;;
37609;SDS011;23457;51.966;8.230;2023-02-18T09:22:25;7.45;;;6.20;;
37609;SDS011;23457;51.966;8.230;2023-02-18T09:24:52;8.35;;;6.75;;
37609;SDS011;23457;51.966;8.230;2023-02-18T09:27:19;7.35;;;6.53;;
37609;SDS011;23457;51.966;8.230;2023-02-18T09:29:47;8.35;;;6.20;;
37609;SDS011;23457;51.966;8.230;2023-02-18T09:32:14;8.77;;;6.03;;
37609;SDS011;23457;51.966;8.230;2023-02-18T09:34:59;6.25;;;5.40;;
37609;SDS011;23457;51.966;8.230;2023-02-18T09:37:25;7.18;;;5.80;;
37609;SDS011;23457;51.966;8.230;2023-02-18T09:39:52;7.93;;;5.43;;
37609;SDS011;23457;51.966;8.230;2023-02-18T09:42:19;6.03;;;5.35;;
37609;SDS011;23457;51.966;8.230;2023-02-18T09:44:53;6.85;;;6.15;;
37609;SDS011;23457;51.966;8.230;2023-02-18T09:50:03;11.27;;;8.68;;
37609;SDS011;23457;51.966;8.230;2023-02-18T09:52:34;10.02;;;9.02;;
37609;SDS011;23457;51.966;8.230;2023-02-18T09:57:52;11.95;;;10.75;;
37609;SDS011;23457;51.966;8.230;2023-02-18T10:00:27;15.60;;;11.00;;
37609;SDS011;23457;51.966;8.230;2023-02-18T10:03:10;12.95;;;11.13;;
37609;SDS011;23457;51.966;8.230;2023-02-18T10:05:42;14.10;;;11.15;;
37609;SDS011;23457;51.966;8.230;2023-02-18T10:08:27;13.68;;;11.02;;
37609;SDS011;23457;51.966;8.230;2023-02-18T10:10:55;16.15;;;10.57;;
37609;SDS011;23457;51.966;8.230;2023-02-18T10:13:29;12.68;;;11.18;;
37609;SDS011;23457;51.966;8.230;2023-02-18T10:15:59;13.20;;;9.38;;
37609;SDS011;23457;51.966;8.230;2023-02-18T10:18:28;11.45;;;8.50;;
37609;SDS011;23457;51.966;8.230;2023-02-18T10:21:11;9.70;;;7.13;;
37609;SDS011;23457;51.966;8.230;2023-02-18T10:23:41;8.73;;;6.20;;
37609;SDS011;23457;51.966;8.230;2023-02-18T10:26:19;9.95;;;6.43;;
37609;SDS011;23457;51.966;8.230;2023-02-18T10:28:47;8.85;;;6.63;;
37609;SDS011;23457;51.966;8.230;2023-02-18T10:31:15;10.18;;;6.57;;
37609;SDS011;23457;51.966;8.230;2023-02-18T10:44:05;14.73;;;8.00;;
37609;SDS011;23457;51.966;8.230;2023-02-18T10:46:59;13.10;;;8.07;;
37609;SDS011;23457;51.966;8.230;2023-02-18T10:51:59;14.05;;;9.13;;
37609;SDS011;23457;51.966;8.230;2023-02-18T10:57:23;15.75;;;9.57;;
37609;SDS011;23457;51.966;8.230;2023-02-18T10:59:55;16.15;;;10.52;;
37609;SDS011;23457;51.966;8.230;2023-02-18T11:02:28;16.20;;;9.70;;
37609;SDS011;23457;51.966;8.230;2023-02-18T11:04:58;15.57;;;9.90;;
37609;SDS011;23457;51.966;8.230;2023-02-18T11:07:43;13.57;;;10.07;;
37609;SDS011;23457;51.966;8.230;2023-02-18T11:10:15;14.95;;;10.48;;
37609;SDS011;23457;51.966;8.230;2023-02-18T11:15:30;17.55;;;10.70;;
37609;SDS011;23457;51.966;8.230;2023-02-18T11:18:10;15.82;;;9.30;;
37609;SDS011;23457;51.966;8.230;2023-02-18T11:20:39;17.80;;;9.27;;
37609;SDS011;23457;51.966;8.230;2023-02-18T11:23:15;13.43;;;8.93;;
37609;SDS011;23457;51.966;8.230;2023-02-18T11:25:55;12.63;;;8.38;;
37609;SDS011;23457;51.966;8.230;2023-02-18T11:31:17;13.20;;;8.85;;
37609;SDS011;23457;51.966;8.230;2023-02-18T11:33:57;15.60;;;9.35;;
37609;SDS011;23457;51.966;8.230;2023-02-18T11:36:30;13.77;;;8.73;;
37609;SDS011;23457;51.966;8.230;2023-02-18T11:39:06;13.30;;;9.15;;
37609;SDS011;23457;51.966;8.230;2023-02-18T11:41:53;14.65;;;8.45;;
37609;SDS011;23457;51.966;8.230;2023-02-18T11:44:37;15.52;;;8.77;;
37609;SDS011;23457;51.966;8.230;2023-02-18T11:49:40;12.35;;;8.90;;
37609;SDS011;23457;51.966;8.230;2023-02-18T11:52:27;12.35;;;8.40;;
37609;SDS011;23457;51.966;8.230;2023-02-18T11:57:25;15.90;;;8.98;;
37609;SDS011;23457;51.966;8.230;2023-02-18T11:59:53;14.75;;;8.60;;
37609;SDS011;23457;51.966;8.230;2023-02-18T12:07:51;10.63;;;8.73;;
37609;SDS011;23457;51.966;8.230;2023-02-18T12:13:09;11.93;;;7.53;;
37609;SDS011;23457;51.966;8.230;2023-02-18T12:22:48;8.80;;;6.90;;
37609;SDS011;23457;51.966;8.230;2023-02-18T12:25:19;10.32;;;7.05;;
37609;SDS011;23457;51.966;8.230;2023-02-18T13:03:54;9.80;;;6.15;;
37609;SDS011;23457;51.966;8.230;2023-02-18T13:14:40;11.60;;;6.68;;
37609;SDS011;23457;51.966;8.230;2023-02-18T13:17:25;7.65;;;6.15;;
37609;SDS011;23457;51.966;8.230;2023-02-18T13:19:56;8.57;;;6.88;;
37609;SDS011;23457;51.966;8.230;2023-02-18T13:22:27;7.97;;;6.05;;
37609;SDS011;23457;51.966;8.230;2023-02-18T13:24:56;8.75;;;6.20;;
37609;SDS011;23457;51.966;8.230;2023-02-18T13:35:18;14.73;;;7.75;;
37609;SDS011;23457;51.966;8.230;2023-02-18T13:40:49;12.48;;;8.38;;
37609;SDS011;23457;51.966;8.230;2023-02-18T13:48:38;16.67;;;8.18;;
37609;SDS011;23457;51.966;8.230;2023-02-18T13:51:05;12.93;;;8.27;;
37609;SDS011;23457;51.966;8.230;2023-02-18T13:53:51;18.63;;;8.70;;
37609;SDS011;23457;51.966;8.230;2023-02-18T13:56:26;13.02;;;8.20;;
37609;SDS011;23457;51.966;8.230;2023-02-18T13:58:59;17.55;;;8.27;;
37609;SDS011;23457;51.966;8.230;2023-02-18T14:01:38;15.90;;;8.15;;
37609;SDS011;23457;51.966;8.230;2023-02-18T14:09:57;18.35;;;9.10;;
37609;SDS011;23457;51.966;8.230;2023-02-18T14:12:27;13.13;;;8.52;;
37609;SDS011;23457;51.966;8.230;2023-02-18T14:15:48;14.30;;;8.50;;
37609;SDS011;23457;51.966;8.230;2023-02-18T14:23:11;14.07;;;7.88;;
37609;SDS011;23457;51.966;8.230;2023-02-18T14:26:05;15.38;;;7.65;;
37609;SDS011;23457;51.966;8.230;2023-02-18T14:38:49;10.57;;;7.20;;
37609;SDS011;23457;51.966;8.230;2023-02-18T14:52:05;10.93;;;6.85;;
37609;SDS011;23457;51.966;8.230;2023-02-18T14:54:47;13.25;;;5.80;;
37609;SDS011;23457;51.966;8.230;2023-02-18T14:57:15;10.05;;;6.85;;
37609;SDS011;23457;51.966;8.230;2023-02-18T14:59:45;9.95;;;6.32;;
37609;SDS011;23457;51.966;8.230;2023-02-18T15:02:15;11.35;;;6.57;;
37609;SDS011;23457;51.966;8.230;2023-02-18T15:05:12;13.00;;;6.45;;
37609;SDS011;23457;51.966;8.230;2023-02-18T15:07:40;8.70;;;6.43;;
37609;SDS011;23457;51.966;8.230;2023-02-18T15:10:13;11.02;;;6.75;;
37609;SDS011;23457;51.966;8.230;2023-02-18T15:12:41;13.60;;;6.55;;
37609;SDS011;23457;51.966;8.230;2023-02-18T15:15:09;9.52;;;6.50;;
37609;SDS011;23457;51.966;8.230;2023-02-18T15:17:43;15.68;;;6.95;;
37609;SDS011;23457;51.966;8.230;2023-02-18T15:20:12;13.77;;;6.97;;
37609;SDS011;23457;51.966;8.230;2023-02-18T15:22:40;16.25;;;7.18;;
37609;SDS011;23457;51.966;8.230;2023-02-18T15:25:10;13.85;;;6.97;;
37609;SDS011;23457;51.966;8.230;2023-02-18T15:27:39;14.27;;;7.20;;
37609;SDS011;23457;51.966;8.230;2023-02-18T15:30:29;13.25;;;7.15;;
37609;SDS011;23457;51.966;8.230;2023-02-18T15:32:57;14.80;;;7.50;;
37609;SDS011;23457;51.966;8.230;2023-02-18T15:35:27;13.45;;;7.47;;
37609;SDS011;23457;51.966;8.230;2023-02-18T15:37:57;15.65;;;9.23;;
37609;SDS011;23457;51.966;8.230;2023-02-18T15:40:29;13.10;;;8.05;;
37609;SDS011;23457;51.966;8.230;2023-02-18T15:42:58;15.05;;;7.55;;
37609;SDS011;23457;51.966;8.230;2023-02-18T15:45:31;10.63;;;6.50;;
37609;SDS011;23457;51.966;8.230;2023-02-18T15:48:04;14.27;;;6.25;;
37609;SDS011;23457;51.966;8.230;2023-02-18T15:50:35;11.00;;;5.70;;
37609;SDS011;23457;51.966;8.230;2023-02-18T15:53:05;15.00;;;6.13;;
37609;SDS011;23457;51.966;8.230;2023-02-18T15:55:35;13.10;;;5.70;;
37609;SDS011;23457;51.966;8.230;2023-02-18T15:58:06;10.13;;;6.13;;
37609;SDS011;23457;51.966;8.230;2023-02-18T16:00:39;6.95;;;5.65;;
37609;SDS011;23457;51.966;8.230;2023-02-18T16:03:19;11.52;;;5.63;;
37609;SDS011;23457;51.966;8.230;2023-02-18T16:05:48;10.50;;;5.90;;
37609;SDS011;23457;51.966;8.230;2023-02-18T16:08:16;13.07;;;5.97;;
37609;SDS011;23457;51.966;8.230;2023-02-18T16:10:52;12.25;;;5.97;;
37609;SDS011;23457;51.966;8.230;2023-02-18T16:13:22;12.80;;;6.03;;
37609;SDS011;23457;51.966;8.230;2023-02-18T16:15:52;11.40;;;6.10;;
37609;SDS011;23457;51.966;8.230;2023-02-18T16:18:38;13.90;;;6.32;;
37609;SDS011;23457;51.966;8.230;2023-02-18T16:21:21;13.82;;;7.80;;
37609;SDS011;23457;51.966;8.230;2023-02-18T16:23:52;12.68;;;6.13;;
37609;SDS011;23457;51.966;8.230;2023-02-18T16:29:14;18.65;;;6.47;;
37609;SDS011;23457;51.966;8.230;2023-02-18T16:31:41;18.38;;;6.50;;
37609;SDS011;23457;51.966;8.230;2023-02-18T16:34:09;15.90;;;7.07;;
37609;SDS011;23457;51.966;8.230;2023-02-18T16:36:35;11.80;;;6.07;;
37609;SDS011;23457;51.966;8.230;2023-02-18T16:39:02;17.45;;;7.20;;
37609;SDS011;23457;51.966;8.230;2023-02-18T16:41:29;17.55;;;7.20;;
37609;SDS011;23457;51.966;8.230;2023-02-18T16:43:56;18.52;;;6.55;;
37609;SDS011;23457;51.966;8.230;2023-02-18T16:46:22;16.85;;;7.43;;
37609;SDS011;23457;51.966;8.230;2023-02-18T16:48:53;17.45;;;7.30;;
37609;SDS011;23457;51.966;8.230;2023-02-18T16:51:22;13.82;;;6.80;;
37609;SDS011;23457;51.966;8.230;2023-02-18T16:53:51;12.20;;;7.30;;
37609;SDS011;23457;51.966;8.230;2023-02-18T16:56:18;15.63;;;7.05;;
37609;SDS011;23457;51.966;8.230;2023-02-18T16:58:48;19.67;;;7.30;;
37609;SDS011;23457;51.966;8.230;2023-02-18T17:03:48;16.02;;;6.70;;
37609;SDS011;23457;51.966;8.230;2023-02-18T17:06:16;19.50;;;7.10;;
37609;SDS011;23457;51.966;8.230;2023-02-18T17:08:43;14.88;;;7.45;;
37609;SDS011;23457;51.966;8.230;2023-02-18T17:11:18;23.40;;;7.70;;
37609;SDS011;23457;51.966;8.230;2023-02-18T17:13:48;18.17;;;7.45;;
37609;SDS011;23457;51.966;8.230;2023-02-18T17:16:15;15.35;;;7.63;;
37609;SDS011;23457;51.966;8.230;2023-02-18T17:18:42;13.00;;;6.63;;
37609;SDS011;23457;51.966;8.230;2023-02-18T17:21:10;19.50;;;7.50;;
37609;SDS011;23457;51.966;8.230;2023-02-18T17:23:42;14.60;;;7.50;;
37609;SDS011;23457;51.966;8.230;2023-02-18T17:26:10;15.43;;;7.78;;
37609;SDS011;23457;51.966;8.230;2023-02-18T17:28:46;20.67;;;9.13;;
37609;SDS011;23457;51.966;8.230;2023-02-18T17:31:14;19.15;;;7.20;;
37609;SDS011;23457;51.966;8.230;2023-02-18T17:33:44;12.45;;;7.40;;
37609;SDS011;23457;51.966;8.230;2023-02-18T17:36:11;15.48;;;8.10;;
37609;SDS011;23457;51.966;8.230;2023-02-18T17:38:38;21.63;;;8.98;;
37609;SDS011;23457;51.966;8.230;2023-02-18T17:41:06;17.27;;;8.93;;
37609;SDS011;23457;51.966;8.230;2023-02-18T17:43:33;21.13;;;8.70;;